createdAt,value
2023-04-22T00:00:25.679Z,10.22
2023-04-22T00:01:27.201Z,10.25
2023-04-22T00:02:29.741Z,9.73
2023-04-22T00:03:32.913Z,9.37
2023-04-22T00:04:37.261Z,9.70
2023-04-22T00:05:41.811Z,9.94
2023-04-22T00:06:45.476Z,10.11
2023-04-22T00:07:47.108Z,9.97
2023-04-22T00:08:49.690Z,9.57
2023-04-22T00:09:51.196Z,9.55
2023-04-22T00:10:53.701Z,9.95
2023-04-22T00:11:55.223Z,9.70
2023-04-22T00:12:57.663Z,9.45
2023-04-22T00:13:59.223Z,9.15
2023-04-22T00:15:02.153Z,9.17
2023-04-22T00:16:04.513Z,9.57
2023-04-22T00:17:07.747Z,9.94
2023-04-22T00:18:14.261Z,10.24
2023-04-22T00:19:17.126Z,10.47
2023-04-22T00:20:21.389Z,10.66
2023-04-22T00:21:25.224Z,10.83
2023-04-22T00:22:26.947Z,10.95
2023-04-22T00:23:29.426Z,11.02
2023-04-22T00:24:31.065Z,11.11
2023-04-22T00:25:34.472Z,11.09
2023-04-22T00:26:36.051Z,11.00
2023-04-22T00:27:38.565Z,10.92
2023-04-22T00:28:40.233Z,10.77
2023-04-22T00:29:42.661Z,10.38
2023-04-22T00:30:44.227Z,9.97
2023-04-22T00:31:46.839Z,9.82
2023-04-22T00:32:50.603Z,10.07
2023-04-22T00:33:53.732Z,10.21
2023-04-22T00:34:55.985Z,10.36
2023-04-22T00:35:58.652Z,10.62
2023-04-22T00:37:01.930Z,10.79
2023-04-22T00:38:04.401Z,10.88
2023-04-22T00:39:06.352Z,10.88
2023-04-22T00:40:10.367Z,10.89
2023-04-22T00:41:12.414Z,10.90
2023-04-22T00:42:15.157Z,10.93
2023-04-22T00:43:17.523Z,10.94
2023-04-22T00:44:20.160Z,10.95
2023-04-22T00:45:21.927Z,11.00
2023-04-22T00:46:24.837Z,11.04
2023-04-22T00:47:27.860Z,11.08
2023-04-22T00:48:30.769Z,11.07
2023-04-22T00:49:32.524Z,11.12
2023-04-22T00:50:35.348Z,11.14
2023-04-22T00:51:37.090Z,10.96
2023-04-22T00:52:40.976Z,10.92
2023-04-22T00:53:43.239Z,10.93
2023-04-22T00:54:46.788Z,10.56
2023-04-22T00:55:48.563Z,9.97
2023-04-22T00:56:51.357Z,9.70
2023-04-22T00:57:55.427Z,9.35
2023-04-22T00:58:58.932Z,9.21
2023-04-22T01:00:00.620Z,9.55
2023-04-22T01:01:03.474Z,9.88
2023-04-22T01:02:05.515Z,10.05
2023-04-22T01:03:08.466Z,10.10
2023-04-22T01:04:12.898Z,10.25
2023-04-22T01:05:15.476Z,10.35
2023-04-22T01:06:19.130Z,10.53
2023-04-22T01:07:21.690Z,10.62
2023-04-22T01:08:28.681Z,10.27
2023-04-22T01:09:31.588Z,10.29
2023-04-22T01:10:33.118Z,10.19
2023-04-22T01:11:36.722Z,10.05
2023-04-22T01:12:38.351Z,10.17
2023-04-22T01:13:40.931Z,10.21
2023-04-22T01:14:42.907Z,9.77
2023-04-22T01:15:45.479Z,9.79
2023-04-22T01:16:47.066Z,9.05
2023-04-22T01:17:49.887Z,9.14
2023-04-22T01:18:52.944Z,9.30
2023-04-22T01:19:55.680Z,9.36
2023-04-22T01:20:57.519Z,9.67
2023-04-22T01:22:02.448Z,9.90
2023-04-22T01:23:10.116Z,10.04
2023-04-22T01:24:14.170Z,9.95
2023-04-22T01:25:16.042Z,9.31
2023-04-22T01:26:18.517Z,8.64
2023-04-22T01:27:21.493Z,7.97
2023-04-22T01:28:24.530Z,8.04
2023-04-22T01:29:26.531Z,7.64
2023-04-22T01:30:29.232Z,7.80
2023-04-22T01:31:31.323Z,7.74
2023-04-22T01:32:34.488Z,8.04
2023-04-22T01:33:36.127Z,7.81
2023-04-22T01:34:38.654Z,7.79
2023-04-22T01:35:41.241Z,7.86
2023-04-22T01:36:44.891Z,7.51
2023-04-22T01:37:46.512Z,7.31
2023-04-22T01:38:49.183Z,7.30
2023-04-22T01:39:52.112Z,7.38
2023-04-22T01:40:54.877Z,7.61
2023-04-22T01:41:56.983Z,7.71
2023-04-22T01:43:00.429Z,7.96
2023-04-22T01:44:03.784Z,8.37
2023-04-22T01:45:07.663Z,8.66
2023-04-22T01:46:09.896Z,8.42
2023-04-22T01:47:13.364Z,8.15
2023-04-22T01:48:14.931Z,7.85
2023-04-22T01:49:18.086Z,7.59
2023-04-22T01:50:20.233Z,7.43
2023-04-22T01:51:23.524Z,7.31
2023-04-22T01:52:26.950Z,7.11
2023-04-22T01:53:29.545Z,7.11
2023-04-22T01:54:31.267Z,7.23
2023-04-22T01:55:36.117Z,7.27
2023-04-22T01:56:38.875Z,7.43
2023-04-22T01:57:41.575Z,7.66
2023-04-22T01:58:44.079Z,7.60
2023-04-22T01:59:46.588Z,7.85
2023-04-22T02:00:48.065Z,8.11
2023-04-22T02:01:50.777Z,7.78
2023-04-22T02:02:52.409Z,7.73
2023-04-22T02:03:55.145Z,7.57
2023-04-22T02:04:57.045Z,7.09
2023-04-22T02:05:59.562Z,7.25
2023-04-22T02:07:01.170Z,7.39
2023-04-22T02:08:03.671Z,7.31
2023-04-22T02:09:05.458Z,7.12
2023-04-22T02:10:09.418Z,7.13
2023-04-22T02:11:12.364Z,7.16
2023-04-22T02:12:14.851Z,6.95
2023-04-22T02:13:16.385Z,6.64
2023-04-22T02:14:18.807Z,6.56
2023-04-22T02:15:20.568Z,6.57
2023-04-22T02:16:23.364Z,6.65
2023-04-22T02:17:24.981Z,6.85
2023-04-22T02:18:27.751Z,6.74
2023-04-22T02:19:29.410Z,6.69
2023-04-22T02:20:31.922Z,6.64
2023-04-22T02:21:33.760Z,6.60
2023-04-22T02:22:36.863Z,6.55
2023-04-22T02:23:39.439Z,6.92
2023-04-22T02:24:43.054Z,7.14
2023-04-22T02:25:48.683Z,7.48
2023-04-22T02:26:52.438Z,7.27
2023-04-22T02:27:53.986Z,7.11
2023-04-22T02:28:56.439Z,7.19
2023-04-22T02:29:57.960Z,7.34
2023-04-22T02:31:00.569Z,7.27
2023-04-22T02:32:02.393Z,7.38
2023-04-22T02:33:04.932Z,7.38
2023-04-22T02:34:06.513Z,7.26
2023-04-22T02:35:09.789Z,7.33
2023-04-22T02:36:11.340Z,7.70
2023-04-22T02:37:13.930Z,7.99
2023-04-22T02:38:15.701Z,8.17
2023-04-22T02:39:18.212Z,8.08
2023-04-22T02:40:20.151Z,8.15
2023-04-22T02:41:22.642Z,7.60
2023-04-22T02:42:25.491Z,7.36
2023-04-22T02:43:28.050Z,6.99
2023-04-22T02:44:29.542Z,6.87
2023-04-22T02:45:32.053Z,6.75
2023-04-22T02:46:34.242Z,6.61
2023-04-22T02:47:36.819Z,6.48
2023-04-22T02:48:38.365Z,6.73
2023-04-22T02:49:41.369Z,7.01
2023-04-22T02:50:43.354Z,6.71
2023-04-22T02:51:45.969Z,6.75
2023-04-22T02:52:47.523Z,6.92
2023-04-22T02:53:50.117Z,6.84
2023-04-22T02:54:51.701Z,6.83
2023-04-22T02:55:55.709Z,6.76
2023-04-22T02:56:58.015Z,6.73
2023-04-22T02:58:01.864Z,6.74
2023-04-22T02:59:03.414Z,6.67
2023-04-22T03:00:08.010Z,6.86
2023-04-22T03:01:09.604Z,6.91
2023-04-22T03:02:12.272Z,6.75
2023-04-22T03:03:14.417Z,6.36
2023-04-22T03:04:17.224Z,6.59
2023-04-22T03:05:19.347Z,7.00
2023-04-22T03:06:21.842Z,6.77
2023-04-22T03:07:23.458Z,6.82
2023-04-22T03:08:26.538Z,6.89
2023-04-22T03:09:28.060Z,6.72
2023-04-22T03:10:30.540Z,6.69
2023-04-22T03:11:32.062Z,6.33
2023-04-22T03:12:34.634Z,6.21
2023-04-22T03:13:37.582Z,6.05
2023-04-22T03:14:40.016Z,6.10
2023-04-22T03:15:41.833Z,6.05
2023-04-22T03:16:44.396Z,5.99
2023-04-22T03:17:46.057Z,6.20
2023-04-22T03:18:48.612Z,6.18
2023-04-22T03:19:50.320Z,6.07
2023-04-22T03:20:52.785Z,6.02
2023-04-22T03:21:54.350Z,5.97
2023-04-22T03:22:57.219Z,5.87
2023-04-22T03:23:58.952Z,5.97
2023-04-22T03:25:01.996Z,6.01
2023-04-22T03:26:03.655Z,6.06
2023-04-22T03:27:06.702Z,6.01
2023-04-22T03:28:08.242Z,6.06
2023-04-22T03:29:12.093Z,6.34
2023-04-22T03:30:13.859Z,6.39
2023-04-22T03:31:16.350Z,6.66
2023-04-22T03:32:18.494Z,6.72
2023-04-22T03:33:21.239Z,6.74
2023-04-22T03:34:23.179Z,6.59
2023-04-22T03:35:25.924Z,6.73
2023-04-22T03:36:28.686Z,6.62
2023-04-22T03:37:30.321Z,6.37
2023-04-22T03:38:32.803Z,6.16
2023-04-22T03:39:34.377Z,6.18
2023-04-22T03:40:37.216Z,6.37
2023-04-22T03:41:39.043Z,6.43
2023-04-22T03:42:41.536Z,6.57
2023-04-22T03:43:43.025Z,6.57
2023-04-22T03:44:46.821Z,6.60
2023-04-22T03:45:49.139Z,6.51
2023-04-22T03:46:51.704Z,6.49
2023-04-22T03:47:53.874Z,6.41
2023-04-22T03:48:56.402Z,6.31
2023-04-22T03:49:58.003Z,6.40
2023-04-22T03:51:00.682Z,6.44
2023-04-22T03:52:02.524Z,6.60
2023-04-22T03:53:05.104Z,6.66
2023-04-22T03:54:06.910Z,6.87
2023-04-22T03:55:10.647Z,6.63
2023-04-22T03:56:12.181Z,6.36
2023-04-22T03:57:14.736Z,6.58
2023-04-22T03:58:16.467Z,6.92
2023-04-22T03:59:19.474Z,7.14
2023-04-22T04:00:22.451Z,7.23
2023-04-22T04:01:24.924Z,7.37
2023-04-22T04:02:26.640Z,7.61
2023-04-22T04:03:31.021Z,7.75
2023-04-22T04:04:33.442Z,7.98
2023-04-22T04:05:36.592Z,8.12
2023-04-22T04:06:38.422Z,8.22
2023-04-22T04:07:41.039Z,8.26
2023-04-22T04:08:42.578Z,8.22
2023-04-22T04:09:45.109Z,8.26
2023-04-22T04:10:46.615Z,8.33
2023-04-22T04:11:49.112Z,8.15
2023-04-22T04:12:50.656Z,8.33
2023-04-22T04:13:53.157Z,8.36
2023-04-22T04:14:54.713Z,8.21
2023-04-22T04:16:00.183Z,8.40
2023-04-22T04:17:03.601Z,8.04
2023-04-22T04:18:06.270Z,7.70
2023-04-22T04:19:08.939Z,7.33
2023-04-22T04:20:11.203Z,7.23
2023-04-22T04:21:13.715Z,7.04
2023-04-22T04:22:15.222Z,6.81
2023-04-22T04:23:18.382Z,6.70
2023-04-22T04:24:19.952Z,6.58
2023-04-22T04:25:22.594Z,6.65
2023-04-22T04:26:25.173Z,6.93
2023-04-22T04:27:27.920Z,7.08
2023-04-22T04:28:32.341Z,7.44
2023-04-22T04:29:34.928Z,7.76
2023-04-22T04:30:37.114Z,8.02
2023-04-22T04:31:40.981Z,8.23
2023-04-22T04:32:43.050Z,8.37
2023-04-22T04:33:46.629Z,8.43
2023-04-22T04:34:48.301Z,8.12
2023-04-22T04:35:51.517Z,8.05
2023-04-22T04:36:53.058Z,8.30
2023-04-22T04:37:55.525Z,8.47
2023-04-22T04:38:57.019Z,8.43
2023-04-22T04:40:00.303Z,8.27
2023-04-22T04:41:02.390Z,8.26
2023-04-22T04:42:05.035Z,8.46
2023-04-22T04:43:08.619Z,8.45
2023-04-22T04:44:11.239Z,8.38
2023-04-22T04:45:12.763Z,8.69
2023-04-22T04:46:16.625Z,8.77
2023-04-22T04:47:20.102Z,8.87
2023-04-22T04:48:25.099Z,8.50
2023-04-22T04:49:26.896Z,8.60
2023-04-22T04:50:30.390Z,8.85
2023-04-22T04:51:32.533Z,9.06
2023-04-22T04:52:35.078Z,8.97
2023-04-22T04:53:36.733Z,9.03
2023-04-22T04:54:39.245Z,9.21
2023-04-22T04:55:40.821Z,9.15
2023-04-22T04:56:43.477Z,8.94
2023-04-22T04:57:45.774Z,8.71
2023-04-22T04:58:48.312Z,8.69
2023-04-22T04:59:49.870Z,8.93
2023-04-22T05:00:52.676Z,9.05
2023-04-22T05:01:54.829Z,9.14
2023-04-22T05:02:58.902Z,8.75
2023-04-22T05:04:00.796Z,8.86
2023-04-22T05:05:03.709Z,8.80
2023-04-22T05:06:06.015Z,8.86
2023-04-22T05:07:08.714Z,8.85
2023-04-22T05:08:11.245Z,8.75
2023-04-22T05:09:12.830Z,8.98
2023-04-22T05:10:15.708Z,9.20
2023-04-22T05:11:17.269Z,9.24
2023-04-22T05:12:20.028Z,9.33
2023-04-22T05:13:22.502Z,9.44
2023-04-22T05:14:25.314Z,9.50
2023-04-22T05:15:26.913Z,9.60
2023-04-22T05:16:29.980Z,9.63
2023-04-22T05:17:31.936Z,9.36
2023-04-22T05:18:35.886Z,8.86
2023-04-22T05:19:37.526Z,8.82
2023-04-22T05:20:40.310Z,8.56
2023-04-22T05:21:41.813Z,8.24
2023-04-22T05:22:45.919Z,8.14
2023-04-22T05:23:47.599Z,8.27
2023-04-22T05:24:50.139Z,8.58
2023-04-22T05:25:53.454Z,8.93
2023-04-22T05:26:57.391Z,9.12
2023-04-22T05:27:58.921Z,9.02
2023-04-22T05:29:01.406Z,9.29
2023-04-22T05:30:03.364Z,9.52
2023-04-22T05:31:06.775Z,9.48
2023-04-22T05:32:09.522Z,9.13
2023-04-22T05:33:11.204Z,9.14
2023-04-22T05:34:15.173Z,9.43
2023-04-22T05:35:16.851Z,9.60
2023-04-22T05:36:19.381Z,9.82
2023-04-22T05:37:21.590Z,10.01
2023-04-22T05:38:24.077Z,10.17
2023-04-22T05:39:26.193Z,10.24
2023-04-22T05:40:28.664Z,10.20
2023-04-22T05:41:30.270Z,10.33
2023-04-22T05:42:32.754Z,10.32
2023-04-22T05:43:34.341Z,10.46
2023-04-22T05:44:36.765Z,10.54
2023-04-22T05:45:38.415Z,10.57
2023-04-22T05:46:40.944Z,10.68
2023-04-22T05:47:42.516Z,10.73
2023-04-22T05:48:45.011Z,10.63
2023-04-22T05:49:48.111Z,10.70
2023-04-22T05:50:50.550Z,10.75
2023-04-22T05:51:52.036Z,10.77
2023-04-22T05:52:56.597Z,10.68
2023-04-22T05:53:58.178Z,10.78
2023-04-22T05:55:00.686Z,10.81
2023-04-22T05:56:02.535Z,10.83
2023-04-22T05:57:05.413Z,10.83
2023-04-22T05:58:07.061Z,10.95
2023-04-22T05:59:09.529Z,10.96
2023-04-22T06:00:12.294Z,11.02
2023-04-22T06:01:14.902Z,10.99
2023-04-22T06:02:16.559Z,11.11
2023-04-22T06:03:19.236Z,11.21
2023-04-22T06:04:21.133Z,11.29
2023-04-22T06:05:25.328Z,11.45
2023-04-22T06:06:27.554Z,11.43
2023-04-22T06:07:30.322Z,11.46
2023-04-22T06:08:32.160Z,11.52
2023-04-22T06:09:34.686Z,11.61
2023-04-22T06:10:36.235Z,11.63
2023-04-22T06:11:38.734Z,11.64
2023-04-22T06:12:40.746Z,11.73
2023-04-22T06:13:43.203Z,11.76
2023-04-22T06:14:44.725Z,11.90
2023-04-22T06:15:47.215Z,11.93
2023-04-22T06:16:50.371Z,11.97
2023-04-22T06:17:53.145Z,11.95
2023-04-22T06:18:54.685Z,12.09
2023-04-22T06:19:57.428Z,12.12
2023-04-22T06:21:00.249Z,12.08
2023-04-22T06:22:03.060Z,12.10
2023-04-22T06:23:05.340Z,12.26
2023-04-22T06:24:09.061Z,12.27
2023-04-22T06:25:10.643Z,12.15
2023-04-22T06:26:13.485Z,12.24
2023-04-22T06:27:15.131Z,12.39
2023-04-22T06:28:17.711Z,12.52
2023-04-22T06:29:19.228Z,12.58
2023-04-22T06:30:22.062Z,12.63
2023-04-22T06:31:23.838Z,12.68
2023-04-22T06:32:26.329Z,12.81
2023-04-22T06:33:28.360Z,12.88
2023-04-22T06:34:30.841Z,12.93
2023-04-22T06:35:32.480Z,12.96
2023-04-22T06:36:38.617Z,13.05
2023-04-22T06:37:40.213Z,13.03
2023-04-22T06:38:42.644Z,13.04
2023-04-22T06:39:44.213Z,12.80
2023-04-22T06:40:46.700Z,12.92
2023-04-22T06:41:49.131Z,12.64
2023-04-22T06:42:51.769Z,12.79
2023-04-22T06:43:53.273Z,12.50
2023-04-22T06:44:55.815Z,12.41
2023-04-22T06:45:57.329Z,12.30
2023-04-22T06:46:59.937Z,12.48
2023-04-22T06:48:01.557Z,12.35
2023-04-22T06:49:04.123Z,12.34
2023-04-22T06:50:08.235Z,12.29
2023-04-22T06:51:09.845Z,12.45
2023-04-22T06:52:13.950Z,12.41
2023-04-22T06:53:15.711Z,12.57
2023-04-22T06:54:18.308Z,12.68
2023-04-22T06:55:20.170Z,12.88
2023-04-22T06:56:22.618Z,13.16
2023-04-22T06:57:24.242Z,13.25
2023-04-22T06:58:26.771Z,13.09
2023-04-22T06:59:28.300Z,13.14
2023-04-22T07:00:30.778Z,13.10
2023-04-22T07:01:35.035Z,13.07
2023-04-22T07:02:37.825Z,13.15
2023-04-22T07:03:39.572Z,13.30
2023-04-22T07:04:42.236Z,13.47
2023-04-22T07:05:44.209Z,13.80
2023-04-22T07:06:46.904Z,14.06
2023-04-22T07:07:49.805Z,14.28
2023-04-22T07:08:52.357Z,14.45
2023-04-22T07:09:53.990Z,14.66
2023-04-22T07:11:59.407Z,14.19
2023-04-22T07:13:02.120Z,14.19
2023-04-22T07:14:03.773Z,14.08
2023-04-22T07:15:07.537Z,13.68
2023-04-22T07:16:09.199Z,13.85
2023-04-22T07:17:12.358Z,13.88
2023-04-22T07:18:13.931Z,13.69
2023-04-22T07:19:25.470Z,13.66
2023-04-22T07:20:47.097Z,14.08
2023-04-22T07:22:09.732Z,14.39
2023-04-22T07:23:33.695Z,14.64
2023-04-22T07:24:56.347Z,14.46
2023-04-22T07:26:19.102Z,14.20
2023-04-22T07:27:41.594Z,14.24
2023-04-22T07:29:04.099Z,14.45
2023-04-22T07:30:26.815Z,14.96
2023-04-22T07:31:49.323Z,15.00
2023-04-22T07:33:10.969Z,14.84
2023-04-22T07:34:33.468Z,14.97
2023-04-22T07:35:55.913Z,14.52
2023-04-22T07:37:18.378Z,14.71
2023-04-22T07:38:42.270Z,15.12
2023-04-22T07:40:05.924Z,15.42
2023-04-22T07:41:28.833Z,15.37
2023-04-22T07:42:50.374Z,15.50
2023-04-22T07:44:16.434Z,15.42
2023-04-22T07:45:39.250Z,15.43
2023-04-22T07:47:01.036Z,15.46
2023-04-22T07:48:24.002Z,15.84
2023-04-22T07:49:46.639Z,15.74
2023-04-22T07:51:16.891Z,15.78
2023-04-22T07:52:39.403Z,15.75
2023-04-22T07:54:02.313Z,15.98
2023-04-22T07:55:25.191Z,16.12
2023-04-22T07:56:46.735Z,16.16
2023-04-22T07:58:09.303Z,16.11
2023-04-22T07:59:30.848Z,16.07
2023-04-22T08:00:53.396Z,16.36
2023-04-22T08:02:16.137Z,16.62
2023-04-22T08:03:38.848Z,16.78
2023-04-22T08:05:01.811Z,16.86
2023-04-22T08:06:24.647Z,16.80
2023-04-22T08:07:47.175Z,16.74
2023-04-22T08:09:11.250Z,17.03
2023-04-22T08:10:33.309Z,16.46
2023-04-22T08:11:56.630Z,16.92
2023-04-22T08:13:19.107Z,16.86
2023-04-22T08:14:41.930Z,16.96
2023-04-22T08:16:05.296Z,16.74
2023-04-22T08:17:28.015Z,16.41
2023-04-22T08:18:52.322Z,16.51
2023-04-22T08:20:15.636Z,16.75
2023-04-22T08:21:38.524Z,16.73
2023-04-22T08:23:01.155Z,16.93
2023-04-22T08:24:24.217Z,17.01
2023-04-22T08:25:46.765Z,17.22
2023-04-22T08:27:08.424Z,17.31
2023-04-22T08:28:30.954Z,17.25
2023-04-22T08:29:53.553Z,17.52
2023-04-22T08:31:16.159Z,17.85
2023-04-22T08:32:38.700Z,17.86
2023-04-22T08:34:01.485Z,17.97
2023-04-22T08:35:24.230Z,17.87
2023-04-22T08:36:45.827Z,17.94
2023-04-22T08:38:08.368Z,17.75
2023-04-22T08:39:32.591Z,17.56
2023-04-22T08:40:57.932Z,17.53
2023-04-22T08:42:19.894Z,17.59
2023-04-22T08:43:43.640Z,17.77
2023-04-22T08:45:07.246Z,17.89
2023-04-22T08:46:32.264Z,17.95
2023-04-22T08:47:55.575Z,17.68
2023-04-22T08:49:18.859Z,17.74
2023-04-22T08:50:42.049Z,17.87
2023-04-22T08:52:04.663Z,18.00
2023-04-22T08:53:28.975Z,18.08
2023-04-22T08:54:53.540Z,18.27
2023-04-22T08:56:16.623Z,18.27
2023-04-22T08:57:39.992Z,18.29
2023-04-22T08:59:02.862Z,18.18
2023-04-22T09:00:25.532Z,18.27
2023-04-22T09:01:52.053Z,18.34
2023-04-22T09:03:16.494Z,18.33
2023-04-22T09:04:38.268Z,18.63
2023-04-22T09:06:04.372Z,18.62
2023-04-22T09:07:29.540Z,18.63
2023-04-22T09:08:53.146Z,18.75
2023-04-22T09:10:17.246Z,18.84
2023-04-22T09:11:38.829Z,18.58
2023-04-22T09:13:02.184Z,18.49
2023-04-22T09:14:26.284Z,18.70
2023-04-22T09:15:47.888Z,18.74
2023-04-22T09:17:10.761Z,18.59
2023-04-22T09:18:40.999Z,18.95
2023-04-22T09:20:06.155Z,19.08
2023-04-22T09:21:29.352Z,19.25
2023-04-22T09:22:50.901Z,19.19
2023-04-22T09:24:13.700Z,19.60
2023-04-22T09:25:39.334Z,19.85
2023-04-22T09:27:03.762Z,20.14
2023-04-22T09:28:26.321Z,20.25
2023-04-22T09:29:48.950Z,20.36
2023-04-22T09:31:15.674Z,20.12
2023-04-22T09:32:38.242Z,19.80
2023-04-22T09:34:01.732Z,19.83
2023-04-22T09:35:28.939Z,20.09
2023-04-22T09:36:52.139Z,19.93
2023-04-22T09:38:14.683Z,19.99
2023-04-22T09:39:36.343Z,20.25
2023-04-22T09:41:00.393Z,20.06
2023-04-22T09:42:25.889Z,19.50
2023-04-22T09:43:47.425Z,19.38
2023-04-22T09:45:11.281Z,19.61
2023-04-22T09:46:34.869Z,19.72
2023-04-22T09:48:01.407Z,19.91
2023-04-22T09:49:26.692Z,20.14
2023-04-22T09:50:50.934Z,20.30
2023-04-22T09:52:21.660Z,19.93
2023-04-22T09:53:44.301Z,19.98
2023-04-22T09:55:10.401Z,20.16
2023-04-22T09:56:49.345Z,20.38
2023-04-22T09:58:13.821Z,20.44
2023-04-22T09:59:35.674Z,20.53
2023-04-22T10:00:59.970Z,20.56
2023-04-22T10:02:30.284Z,20.79
2023-04-22T10:03:51.951Z,20.69
2023-04-22T10:05:14.693Z,20.75
2023-04-22T10:06:37.339Z,20.42
2023-04-22T10:08:00.187Z,20.75
2023-04-22T10:09:25.033Z,20.87
2023-04-22T10:10:48.111Z,21.32
2023-04-22T10:12:11.276Z,21.13
2023-04-22T10:13:33.846Z,21.29
2023-04-22T10:14:56.355Z,21.36
2023-04-22T10:16:20.892Z,21.50
2023-04-22T10:17:45.726Z,21.36
2023-04-22T10:19:13.676Z,21.39
2023-04-22T10:20:38.042Z,21.09
2023-04-22T10:22:03.369Z,21.58
2023-04-22T10:23:26.309Z,21.75
2023-04-22T10:24:50.170Z,21.96
2023-04-22T10:26:12.727Z,22.34
2023-04-22T10:27:36.700Z,22.39
2023-04-22T10:28:58.269Z,22.40
2023-04-22T10:30:28.905Z,23.42
2023-04-22T10:31:55.572Z,24.15
2023-04-22T10:33:37.156Z,23.85
2023-04-22T10:35:14.535Z,24.86
2023-04-22T10:36:53.878Z,24.57
2023-04-22T10:38:17.582Z,24.44
2023-04-22T10:39:42.020Z,24.62
2023-04-22T10:41:04.362Z,25.90
2023-04-22T10:42:29.592Z,26.37
2023-04-22T10:43:59.633Z,25.36
2023-04-22T10:45:26.535Z,25.58
2023-04-22T10:47:01.015Z,25.85
2023-04-22T10:48:50.689Z,24.97
2023-04-22T10:50:17.485Z,25.16
2023-04-22T10:51:40.810Z,27.11
2023-04-22T10:53:36.695Z,27.30
2023-04-22T10:54:59.889Z,26.34
2023-04-22T10:56:22.353Z,26.62
2023-04-22T10:57:47.059Z,28.27
2023-04-22T10:59:17.004Z,27.15
2023-04-22T11:00:53.185Z,26.62
2023-04-22T11:02:16.773Z,26.73
2023-04-22T11:03:39.783Z,26.27
2023-04-22T11:05:20.415Z,26.72
2023-04-22T11:06:42.946Z,25.67
2023-04-22T11:08:09.694Z,25.06
2023-04-22T11:09:31.265Z,24.61
2023-04-22T11:10:55.234Z,25.35
2023-04-22T11:12:42.679Z,26.26
2023-04-22T11:14:05.878Z,27.75
2023-04-22T11:15:30.258Z,27.98
2023-04-22T11:16:53.156Z,27.30
2023-04-22T11:18:19.775Z,27.65
2023-04-22T11:19:43.296Z,28.87
2023-04-22T11:21:09.139Z,27.13
2023-04-22T11:22:34.892Z,27.07
2023-04-22T11:24:02.752Z,26.63
2023-04-22T11:25:26.305Z,26.74
2023-04-22T11:26:48.815Z,28.09
2023-04-22T11:28:11.352Z,27.82
2023-04-22T11:29:34.313Z,24.53
2023-04-22T11:31:04.857Z,23.69
2023-04-22T11:32:27.041Z,23.75
2023-04-22T11:33:50.911Z,24.60
2023-04-22T11:35:14.568Z,25.60
2023-04-22T11:36:37.185Z,28.17
2023-04-22T11:38:01.007Z,26.86
2023-04-22T11:39:23.491Z,26.17
2023-04-22T11:40:47.220Z,26.05
2023-04-22T11:42:10.426Z,24.19
2023-04-22T11:43:32.970Z,24.49
2023-04-22T11:44:54.526Z,24.05
2023-04-22T11:46:29.625Z,24.33
2023-04-22T11:47:53.145Z,25.22
2023-04-22T11:49:16.325Z,26.32
2023-04-22T11:50:40.512Z,25.95
2023-04-22T11:52:03.067Z,28.08
2023-04-22T11:53:25.869Z,27.23
2023-04-22T11:54:47.477Z,27.44
2023-04-22T11:56:10.071Z,24.54
2023-04-22T11:57:36.196Z,24.12
2023-04-22T11:58:58.659Z,25.18
2023-04-22T12:00:20.566Z,28.11
2023-04-22T12:01:44.704Z,28.62
2023-04-22T12:03:09.073Z,27.96
2023-04-22T12:04:36.351Z,27.72
2023-04-22T12:06:01.688Z,26.63
2023-04-22T12:07:23.434Z,26.57
2023-04-22T12:08:47.424Z,26.89
2023-04-22T12:10:11.186Z,27.03
2023-04-22T12:11:33.688Z,26.17
2023-04-22T12:12:55.250Z,26.24
2023-04-22T12:14:17.724Z,26.98
2023-04-22T12:15:42.348Z,27.84
2023-04-22T12:17:10.687Z,27.66
2023-04-22T12:18:34.453Z,27.31
2023-04-22T12:19:57.389Z,27.46
2023-04-22T12:21:22.300Z,27.13
2023-04-22T12:22:45.165Z,26.76
2023-04-22T12:24:11.326Z,27.69
2023-04-22T12:25:33.966Z,29.44
2023-04-22T12:26:56.818Z,28.47
2023-04-22T12:28:19.727Z,27.90
2023-04-22T12:29:52.152Z,27.40
2023-04-22T12:31:16.263Z,28.67
2023-04-22T12:32:40.149Z,29.78
2023-04-22T12:34:02.851Z,29.43
2023-04-22T12:35:25.566Z,28.61
2023-04-22T12:36:48.980Z,27.12
2023-04-22T12:38:11.576Z,27.97
2023-04-22T12:39:33.120Z,28.12
2023-04-22T12:40:55.909Z,26.92
2023-04-22T12:42:18.400Z,27.38
2023-04-22T12:43:40.973Z,28.38
2023-04-22T12:45:04.339Z,26.73
2023-04-22T12:46:27.026Z,26.51
2023-04-22T12:47:53.678Z,27.15
2023-04-22T12:49:16.358Z,27.63
2023-04-22T12:50:41.584Z,27.14
2023-04-22T12:52:03.119Z,26.06
2023-04-22T12:53:26.707Z,25.72
2023-04-22T12:54:49.206Z,27.04
2023-04-22T12:56:11.939Z,25.97
2023-04-22T12:57:34.592Z,25.68
2023-04-22T12:58:57.360Z,26.29
2023-04-22T13:00:20.957Z,26.07
2023-04-22T13:01:42.477Z,26.28
2023-04-22T13:03:06.639Z,25.91
2023-04-22T13:04:29.354Z,24.69
2023-04-22T13:05:53.257Z,24.53
2023-04-22T13:07:17.400Z,24.23
2023-04-22T13:08:39.894Z,25.14
2023-04-22T13:10:02.426Z,25.32
2023-04-22T13:11:24.585Z,26.88
2023-04-22T13:12:47.008Z,27.15
2023-04-22T13:14:09.473Z,27.09
2023-04-22T13:15:32.005Z,27.30
2023-04-22T13:16:53.550Z,27.57
2023-04-22T13:18:17.519Z,25.33
2023-04-22T13:19:40.405Z,26.67
2023-04-22T13:21:03.191Z,27.11
2023-04-22T13:22:25.762Z,25.95
2023-04-22T13:23:48.248Z,25.70
2023-04-22T13:25:11.435Z,25.66
2023-04-22T13:26:34.085Z,25.26
2023-04-22T13:27:56.508Z,25.36
2023-04-22T13:29:19.087Z,26.26
2023-04-22T13:30:41.691Z,27.05
2023-04-22T13:32:05.798Z,27.06
2023-04-22T13:33:29.690Z,26.20
2023-04-22T13:34:52.677Z,26.05
2023-04-22T13:36:15.183Z,25.96
2023-04-22T13:37:37.751Z,25.81
2023-04-22T13:39:01.369Z,24.92
2023-04-22T13:40:24.074Z,25.00
2023-04-22T13:41:46.606Z,25.12
2023-04-22T13:43:09.376Z,24.24
2023-04-22T13:44:31.811Z,23.84
2023-04-22T13:45:54.436Z,24.59
2023-04-22T13:47:17.112Z,24.65
2023-04-22T13:48:41.265Z,24.80
2023-04-22T13:50:05.373Z,25.06
2023-04-22T13:51:27.843Z,25.44
2023-04-22T13:52:50.591Z,25.47
2023-04-22T13:54:13.096Z,24.75
2023-04-22T13:55:34.691Z,25.27
2023-04-22T13:56:58.545Z,25.55
2023-04-22T13:58:21.018Z,24.41
2023-04-22T13:59:43.503Z,24.41
2023-04-22T14:01:06.516Z,24.69
2023-04-22T14:02:29.214Z,24.71
2023-04-22T14:03:54.892Z,24.43
2023-04-22T14:05:17.838Z,24.64
2023-04-22T14:06:40.316Z,24.22
2023-04-22T14:08:02.799Z,24.19
2023-04-22T14:09:25.335Z,24.29
2023-04-22T14:10:46.907Z,24.52
2023-04-22T14:12:11.371Z,23.87
2023-04-22T14:13:33.988Z,24.20
2023-04-22T14:14:56.640Z,24.37
2023-04-22T14:16:19.858Z,24.04
2023-04-22T14:17:41.569Z,23.76
2023-04-22T14:19:06.155Z,24.10
2023-04-22T14:20:28.718Z,24.49
2023-04-22T14:21:51.173Z,24.23
2023-04-22T14:23:12.677Z,24.01
2023-04-22T14:24:35.186Z,24.35
2023-04-22T14:25:57.012Z,24.65
2023-04-22T14:27:19.524Z,24.82
2023-04-22T14:28:41.775Z,25.56
2023-04-22T14:30:08.438Z,25.77
2023-04-22T14:31:30.957Z,24.89
2023-04-22T14:32:53.919Z,24.43
2023-04-22T14:34:18.076Z,24.56
2023-04-22T14:35:40.968Z,24.94
2023-04-22T14:37:03.457Z,24.57
2023-04-22T14:38:26.009Z,24.29
2023-04-22T14:39:48.635Z,23.47
2023-04-22T14:41:11.378Z,23.26
2023-04-22T14:42:34.044Z,23.51
2023-04-22T14:43:56.563Z,23.71
2023-04-22T14:45:19.306Z,24.17
2023-04-22T14:46:41.850Z,24.55
2023-04-22T14:48:03.777Z,24.44
2023-04-22T14:49:27.645Z,24.10
2023-04-22T14:50:50.275Z,23.86
2023-04-22T14:52:12.900Z,24.09
2023-04-22T14:53:35.816Z,24.06
2023-04-22T14:55:00.230Z,24.65
2023-04-22T14:56:26.179Z,24.88
2023-04-22T14:57:49.113Z,25.07
2023-04-22T14:59:11.589Z,24.65
2023-04-22T15:00:34.162Z,24.87
2023-04-22T15:01:56.717Z,24.15
2023-04-22T15:03:19.941Z,24.27
2023-04-22T15:04:44.426Z,23.99
2023-04-22T15:06:06.963Z,23.74
2023-04-22T15:07:29.733Z,23.17
2023-04-22T15:08:52.284Z,22.85
2023-04-22T15:10:17.036Z,23.05
2023-04-22T15:11:39.560Z,22.99
2023-04-22T15:13:02.037Z,23.54
2023-04-22T15:14:23.536Z,23.64
2023-04-22T15:15:46.765Z,23.76
2023-04-22T15:17:08.466Z,23.97
2023-04-22T15:18:31.030Z,23.14
2023-04-22T15:19:57.589Z,23.29
2023-04-22T15:21:20.064Z,22.91
2023-04-22T15:22:42.792Z,23.07
2023-04-22T15:24:05.524Z,23.02
2023-04-22T15:25:28.069Z,23.20
2023-04-22T15:26:52.830Z,23.12
2023-04-22T15:28:15.430Z,23.22
2023-04-22T15:29:41.028Z,23.25
2023-04-22T15:31:03.938Z,23.44
2023-04-22T15:32:26.534Z,23.66
2023-04-22T15:33:49.007Z,23.94
2023-04-22T15:35:12.797Z,23.86
2023-04-22T15:36:35.434Z,23.83
2023-04-22T15:37:58.708Z,23.09
2023-04-22T15:39:21.409Z,23.11
2023-04-22T15:40:44.319Z,23.03
2023-04-22T15:42:06.861Z,22.98
2023-04-22T15:43:28.430Z,23.18
2023-04-22T15:44:50.931Z,23.38